createdAt,value
2017-10-14T00:00:50.508Z,0
2017-10-14T00:01:51.125Z,0
2017-10-14T00:02:51.739Z,0
2017-10-14T00:03:52.382Z,0
2017-10-14T00:04:53.145Z,0
2017-10-14T00:05:53.756Z,0
2017-10-14T00:06:54.369Z,0
2017-10-14T00:07:55.013Z,0
2017-10-14T00:08:55.625Z,0
2017-10-14T00:09:56.388Z,0
2017-10-14T00:10:57.008Z,0
2017-10-14T00:11:57.651Z,0
2017-10-14T00:12:58.264Z,0
2017-10-14T00:13:58.882Z,0
2017-10-14T00:14:59.641Z,0
2017-10-14T00:16:00.252Z,0
2017-10-14T00:17:00.865Z,0
2017-10-14T00:18:01.480Z,0
2017-10-14T00:19:02.092Z,0
2017-10-14T00:20:02.858Z,0
2017-10-14T00:21:03.467Z,0
2017-10-14T00:22:04.086Z,0
2017-10-14T00:23:04.701Z,0
2017-10-14T00:24:05.313Z,0
2017-10-14T00:25:06.076Z,0
2017-10-14T00:26:06.689Z,0
2017-10-14T00:27:07.301Z,0
2017-10-14T00:28:07.914Z,0
2017-10-14T00:29:08.526Z,0
2017-10-14T00:30:09.293Z,0
2017-10-14T00:31:09.907Z,0
2017-10-14T00:32:10.518Z,0
2017-10-14T00:33:11.131Z,0
2017-10-14T00:34:11.742Z,0
2017-10-14T00:35:12.504Z,0
2017-10-14T00:36:13.117Z,0
2017-10-14T00:37:13.766Z,0
2017-10-14T00:38:14.371Z,0
2017-10-14T00:39:14.985Z,0
2017-10-14T00:40:15.846Z,0
2017-10-14T00:41:16.465Z,0
2017-10-14T00:42:17.073Z,0
2017-10-14T00:43:17.713Z,0
2017-10-14T00:44:18.327Z,0
2017-10-14T00:45:19.091Z,0
2017-10-14T00:46:19.702Z,0
2017-10-14T00:47:20.313Z,0
2017-10-14T00:48:20.925Z,0
2017-10-14T00:49:21.537Z,0
2017-10-14T00:50:22.302Z,0
2017-10-14T00:51:22.916Z,0
2017-10-14T00:52:23.527Z,0
2017-10-14T00:53:24.139Z,0
2017-10-14T00:54:24.753Z,0
2017-10-14T00:55:25.513Z,0
2017-10-14T00:56:26.132Z,0
2017-10-14T00:57:26.747Z,0
2017-10-14T00:58:27.357Z,0
2017-10-14T00:59:27.970Z,0
2017-10-14T01:00:28.732Z,0
2017-10-14T01:01:29.344Z,0
2017-10-14T01:02:29.985Z,0
2017-10-14T01:03:30.616Z,0
2017-10-14T01:04:31.216Z,0
2017-10-14T01:05:31.980Z,0
2017-10-14T01:06:32.595Z,0
2017-10-14T01:07:33.203Z,0
2017-10-14T01:08:33.820Z,0
2017-10-14T01:09:34.432Z,0
2017-10-14T01:10:35.293Z,0
2017-10-14T01:11:35.900Z,0
2017-10-14T01:12:36.512Z,0
2017-10-14T01:13:37.123Z,0
2017-10-14T01:14:37.735Z,0
2017-10-14T01:15:38.498Z,0
2017-10-14T01:16:39.112Z,0
2017-10-14T01:17:39.766Z,0
2017-10-14T01:18:40.362Z,0
2017-10-14T01:19:40.980Z,0
2017-10-14T01:20:41.773Z,0
2017-10-14T01:21:42.408Z,0
2017-10-14T01:22:43.050Z,0
2017-10-14T01:23:43.693Z,0
2017-10-14T01:24:44.307Z,0
2017-10-14T01:25:45.068Z,0
2017-10-14T01:26:45.681Z,0
2017-10-14T01:27:46.298Z,0
2017-10-14T01:28:46.908Z,0
2017-10-14T01:29:47.520Z,0
2017-10-14T01:30:48.284Z,0
2017-10-14T01:31:48.902Z,0
2017-10-14T01:32:49.510Z,0
2017-10-14T01:33:50.124Z,0
2017-10-14T01:34:50.737Z,0
2017-10-14T01:35:51.497Z,0
2017-10-14T01:36:52.112Z,0
2017-10-14T01:37:52.723Z,0
2017-10-14T01:38:53.340Z,0
2017-10-14T01:39:53.946Z,0
2017-10-14T01:40:54.708Z,0
2017-10-14T01:41:55.327Z,0
2017-10-14T01:42:55.935Z,0
2017-10-14T01:43:56.551Z,0
2017-10-14T01:44:57.160Z,0
2017-10-14T01:45:57.922Z,0
2017-10-14T01:46:58.540Z,0
2017-10-14T01:47:59.154Z,0
2017-10-14T01:48:59.767Z,0
2017-10-14T01:50:00.378Z,0
2017-10-14T01:51:01.141Z,0
2017-10-14T01:52:01.754Z,0
2017-10-14T01:53:02.363Z,0
2017-10-14T01:54:02.981Z,0
2017-10-14T01:55:03.592Z,0
2017-10-14T01:56:04.384Z,0
2017-10-14T01:57:04.995Z,0
2017-10-14T01:58:05.612Z,0
2017-10-14T01:59:06.221Z,0
2017-10-14T02:00:06.833Z,0
2017-10-14T02:01:07.596Z,0
2017-10-14T02:02:08.207Z,0
2017-10-14T02:03:08.819Z,0
2017-10-14T02:04:09.429Z,0
2017-10-14T02:05:10.041Z,0
2017-10-14T02:06:10.804Z,0
2017-10-14T02:07:11.416Z,0
2017-10-14T02:08:12.032Z,0
2017-10-14T02:09:12.640Z,0
2017-10-14T02:10:13.253Z,0
2017-10-14T02:11:14.018Z,0
2017-10-14T02:12:14.635Z,0
2017-10-14T02:13:15.246Z,0
2017-10-14T02:14:15.857Z,0
2017-10-14T02:15:16.499Z,0
2017-10-14T02:16:17.267Z,0
2017-10-14T02:17:17.886Z,0
2017-10-14T02:18:18.489Z,0
2017-10-14T02:19:19.100Z,0
2017-10-14T02:20:19.711Z,0
2017-10-14T02:21:20.475Z,0
2017-10-14T02:22:21.086Z,0
2017-10-14T02:23:21.698Z,0
2017-10-14T02:24:22.308Z,0
2017-10-14T02:25:22.930Z,0
2017-10-14T02:26:23.689Z,0
2017-10-14T02:27:24.306Z,0
2017-10-14T02:28:24.915Z,0
2017-10-14T02:29:25.529Z,0
2017-10-14T02:30:26.142Z,0
2017-10-14T02:31:26.903Z,0
2017-10-14T02:32:27.515Z,0
2017-10-14T02:33:28.128Z,0
2017-10-14T02:34:28.742Z,0
2017-10-14T02:35:29.354Z,0
2017-10-14T02:36:30.123Z,0
2017-10-14T02:37:30.737Z,0
2017-10-14T02:38:31.346Z,0
2017-10-14T02:39:31.958Z,0
2017-10-14T02:40:32.570Z,0
2017-10-14T02:41:33.332Z,0
2017-10-14T02:42:33.945Z,0
2017-10-14T02:43:34.561Z,0
2017-10-14T02:44:35.171Z,0
2017-10-14T02:45:35.788Z,0
2017-10-14T02:46:36.548Z,0
2017-10-14T02:47:37.163Z,0
2017-10-14T02:48:37.771Z,0
2017-10-14T02:49:38.390Z,0
2017-10-14T02:50:39.003Z,0
2017-10-14T02:51:39.769Z,0
2017-10-14T02:52:40.405Z,0
2017-10-14T02:53:41.017Z,0
2017-10-14T02:54:41.629Z,0
2017-10-14T02:55:42.242Z,0
2017-10-14T02:56:43.004Z,0
2017-10-14T02:57:43.614Z,0
2017-10-14T02:58:44.226Z,0
2017-10-14T02:59:44.839Z,0
2017-10-14T03:00:45.449Z,0
2017-10-14T03:01:46.211Z,0
2017-10-14T03:02:46.823Z,0
2017-10-14T03:03:47.437Z,0
2017-10-14T03:04:48.053Z,0
2017-10-14T03:05:48.662Z,0
2017-10-14T03:06:49.423Z,0
2017-10-14T03:07:50.041Z,0
2017-10-14T03:08:50.655Z,0
2017-10-14T03:09:51.264Z,0
2017-10-14T03:10:51.878Z,0
2017-10-14T03:11:52.673Z,0
2017-10-14T03:12:53.288Z,0
2017-10-14T03:13:53.902Z,0
2017-10-14T03:14:54.513Z,0
2017-10-14T03:15:55.123Z,0
2017-10-14T03:16:55.884Z,0
2017-10-14T03:17:56.497Z,0
2017-10-14T03:18:57.110Z,0
2017-10-14T03:19:57.721Z,0
2017-10-14T03:20:58.361Z,0
2017-10-14T03:21:59.123Z,0
2017-10-14T03:22:59.735Z,0
2017-10-14T03:24:00.355Z,0
2017-10-14T03:25:00.968Z,0
2017-10-14T03:26:01.585Z,0
2017-10-14T03:27:02.374Z,0
2017-10-14T03:28:02.992Z,0
2017-10-14T03:29:03.600Z,0
2017-10-14T03:30:04.245Z,0
2017-10-14T03:31:04.857Z,0
2017-10-14T03:32:05.619Z,0
2017-10-14T03:33:06.231Z,0
2017-10-14T03:34:06.849Z,0
2017-10-14T03:35:07.456Z,0
2017-10-14T03:36:08.074Z,0
2017-10-14T03:37:08.865Z,0
2017-10-14T03:38:09.476Z,0
2017-10-14T03:39:10.089Z,0
2017-10-14T03:40:10.731Z,0
2017-10-14T03:41:11.342Z,0
2017-10-14T03:42:12.105Z,0
2017-10-14T03:43:12.715Z,0
2017-10-14T03:44:13.331Z,0
2017-10-14T03:45:13.939Z,0
2017-10-14T03:46:14.582Z,0
2017-10-14T03:47:15.343Z,0
2017-10-14T03:48:15.986Z,0
2017-10-14T03:49:16.603Z,0
2017-10-14T03:50:17.212Z,0
2017-10-14T03:51:17.824Z,0
2017-10-14T03:52:18.586Z,0
2017-10-14T03:53:19.204Z,0
2017-10-14T03:54:19.813Z,0
2017-10-14T03:55:20.430Z,0
2017-10-14T03:56:21.043Z,0
2017-10-14T03:57:21.832Z,0
2017-10-14T03:58:22.444Z,0
2017-10-14T03:59:23.057Z,0
2017-10-14T04:00:23.668Z,0
2017-10-14T04:01:24.280Z,0
2017-10-14T04:02:25.079Z,0
2017-10-14T04:03:25.686Z,0
2017-10-14T04:04:26.324Z,0
2017-10-14T04:05:26.937Z,0
2017-10-14T04:06:27.547Z,0
2017-10-14T04:07:28.315Z,0
2017-10-14T04:08:28.931Z,0
2017-10-14T04:09:29.567Z,0
2017-10-14T04:10:30.182Z,0
2017-10-14T04:11:30.791Z,0
2017-10-14T04:12:31.552Z,0
2017-10-14T04:13:32.200Z,0
2017-10-14T04:14:32.809Z,0
2017-10-14T04:15:33.424Z,0
2017-10-14T04:16:34.034Z,0
2017-10-14T04:17:34.795Z,0
2017-10-14T04:18:35.449Z,0
2017-10-14T04:19:36.053Z,0
2017-10-14T04:20:36.693Z,0
2017-10-14T04:21:37.307Z,0
2017-10-14T04:22:38.076Z,0
2017-10-14T04:23:38.687Z,0
2017-10-14T04:24:39.298Z,0
2017-10-14T04:25:39.916Z,0
2017-10-14T04:26:40.524Z,0
2017-10-14T04:27:41.300Z,0
2017-10-14T04:28:41.909Z,0
2017-10-14T04:29:42.525Z,0
2017-10-14T04:30:43.134Z,0
2017-10-14T04:31:43.774Z,0
2017-10-14T04:32:44.541Z,0
2017-10-14T04:33:45.149Z,0
2017-10-14T04:34:45.764Z,0
2017-10-14T04:35:46.395Z,0
2017-10-14T04:36:46.999Z,0
2017-10-14T04:37:47.793Z,0
2017-10-14T04:38:48.410Z,0
2017-10-14T04:39:49.018Z,0
2017-10-14T04:40:49.630Z,0
2017-10-14T04:41:50.247Z,0
2017-10-14T04:42:51.008Z,0
2017-10-14T04:43:51.623Z,0
2017-10-14T04:44:52.231Z,0
2017-10-14T04:45:52.855Z,0
2017-10-14T04:46:53.455Z,0
2017-10-14T04:47:54.217Z,0
2017-10-14T04:48:54.828Z,0
2017-10-14T04:49:55.441Z,0
2017-10-14T04:50:56.052Z,0
2017-10-14T04:51:56.667Z,0
2017-10-14T04:52:57.424Z,0
2017-10-14T04:53:58.068Z,0
2017-10-14T04:54:58.685Z,0
2017-10-14T04:55:59.297Z,0
2017-10-14T04:56:59.907Z,0
2017-10-14T04:58:00.667Z,0
2017-10-14T04:59:01.284Z,0
2017-10-14T05:00:01.894Z,0
2017-10-14T05:01:02.505Z,0
2017-10-14T05:02:03.115Z,0
2017-10-14T05:03:03.875Z,0
2017-10-14T05:04:04.485Z,0
2017-10-14T05:05:05.097Z,0
2017-10-14T05:06:05.709Z,0
2017-10-14T05:07:06.317Z,0
2017-10-14T05:08:07.083Z,0
2017-10-14T05:09:07.698Z,0
2017-10-14T05:10:08.308Z,0
2017-10-14T05:11:08.921Z,0
2017-10-14T05:12:09.560Z,0
2017-10-14T05:13:10.321Z,0
2017-10-14T05:14:10.934Z,0
2017-10-14T05:15:11.546Z,0
2017-10-14T05:16:12.165Z,0
2017-10-14T05:17:12.800Z,0
2017-10-14T05:18:13.560Z,0
2017-10-14T05:19:14.172Z,0
2017-10-14T05:20:14.782Z,0
2017-10-14T05:21:15.396Z,0
2017-10-14T05:22:16.009Z,0
2017-10-14T05:23:16.772Z,0
2017-10-14T05:24:17.383Z,0
2017-10-14T05:25:17.995Z,0
2017-10-14T05:26:18.614Z,0
2017-10-14T05:27:19.221Z,0
2017-10-14T05:28:19.983Z,0
2017-10-14T05:29:20.596Z,0
2017-10-14T05:30:21.206Z,0
2017-10-14T05:31:21.817Z,0
2017-10-14T05:32:22.433Z,0
2017-10-14T05:33:23.190Z,0
2017-10-14T05:34:23.802Z,4
2017-10-14T05:35:24.413Z,0
2017-10-14T05:36:25.025Z,0
2017-10-14T05:37:25.640Z,4
2017-10-14T05:38:26.448Z,4
2017-10-14T05:39:27.060Z,4
2017-10-14T05:40:27.670Z,4
2017-10-14T05:41:28.285Z,4
2017-10-14T05:42:28.893Z,4
2017-10-14T05:43:29.652Z,4
2017-10-14T05:44:30.264Z,4
2017-10-14T05:45:30.879Z,4
2017-10-14T05:46:31.491Z,4
2017-10-14T05:47:32.126Z,4
2017-10-14T05:48:32.916Z,4
2017-10-14T05:49:33.528Z,8
2017-10-14T05:50:34.144Z,8
2017-10-14T05:51:34.753Z,8
2017-10-14T05:52:35.361Z,8
2017-10-14T05:53:36.122Z,12
2017-10-14T05:54:36.734Z,12
2017-10-14T05:55:37.373Z,12
2017-10-14T05:56:38.019Z,12
2017-10-14T05:57:38.632Z,12
2017-10-14T05:58:39.397Z,12
2017-10-14T05:59:40.013Z,16
2017-10-14T06:00:40.627Z,16
2017-10-14T06:01:41.239Z,12
2017-10-14T06:02:41.848Z,16
2017-10-14T06:03:42.610Z,16
2017-10-14T06:04:43.223Z,16
2017-10-14T06:05:43.834Z,16
2017-10-14T06:06:44.458Z,20
2017-10-14T06:07:45.066Z,16
2017-10-14T06:08:45.828Z,20
2017-10-14T06:09:46.440Z,20
2017-10-14T06:10:47.053Z,20
2017-10-14T06:11:47.692Z,20
2017-10-14T06:12:48.334Z,24
2017-10-14T06:13:49.101Z,20
2017-10-14T06:14:49.712Z,24
2017-10-14T06:15:50.327Z,24
2017-10-14T06:16:50.938Z,24
2017-10-14T06:17:51.554Z,24
2017-10-14T06:18:52.347Z,24
2017-10-14T06:19:52.974Z,24
2017-10-14T06:20:53.570Z,24
2017-10-14T06:21:54.184Z,28
2017-10-14T06:22:54.801Z,24
2017-10-14T06:23:55.596Z,24
2017-10-14T06:24:56.206Z,28
2017-10-14T06:25:56.821Z,28
2017-10-14T06:26:57.434Z,28
2017-10-14T06:27:58.046Z,28
2017-10-14T06:28:58.840Z,28
2017-10-14T06:29:59.452Z,28
2017-10-14T06:31:00.066Z,28
2017-10-14T06:32:00.680Z,28
2017-10-14T06:33:01.296Z,32
2017-10-14T06:34:02.063Z,28
2017-10-14T06:35:02.673Z,32
2017-10-14T06:36:03.287Z,32
2017-10-14T06:37:03.898Z,32
2017-10-14T06:38:04.512Z,32
2017-10-14T06:39:05.276Z,32
2017-10-14T06:40:05.897Z,32
2017-10-14T06:41:06.538Z,32
2017-10-14T06:42:07.143Z,32
2017-10-14T06:43:07.758Z,36
2017-10-14T06:44:08.570Z,32
2017-10-14T06:45:09.188Z,36
2017-10-14T06:46:09.800Z,36
2017-10-14T06:47:10.442Z,32
2017-10-14T06:48:11.055Z,36
2017-10-14T06:49:11.817Z,36
2017-10-14T06:50:12.429Z,36
2017-10-14T06:51:13.050Z,36
2017-10-14T06:52:13.693Z,36
2017-10-14T06:53:14.304Z,36
2017-10-14T06:54:15.096Z,36
2017-10-14T06:55:15.709Z,36
2017-10-14T06:56:16.322Z,36
2017-10-14T06:57:16.940Z,36
2017-10-14T06:58:17.558Z,40
2017-10-14T06:59:18.317Z,36
2017-10-14T07:00:18.935Z,40
2017-10-14T07:01:19.548Z,36
2017-10-14T07:02:20.160Z,40
2017-10-14T07:03:20.776Z,40
2017-10-14T07:04:21.537Z,40
2017-10-14T07:05:22.185Z,40
2017-10-14T07:06:22.796Z,40
2017-10-14T07:07:23.410Z,40
2017-10-14T07:08:24.020Z,40
2017-10-14T07:09:24.787Z,40
2017-10-14T07:10:25.402Z,40
2017-10-14T07:11:26.006Z,40
2017-10-14T07:12:26.655Z,40
2017-10-14T07:13:27.265Z,44
2017-10-14T07:14:28.030Z,40
2017-10-14T07:15:28.647Z,40
2017-10-14T07:16:29.256Z,44
2017-10-14T07:17:29.872Z,40
2017-10-14T07:18:30.487Z,44
2017-10-14T07:19:31.248Z,40
2017-10-14T07:20:31.860Z,44
2017-10-14T07:21:32.480Z,40
2017-10-14T07:22:33.089Z,40
2017-10-14T07:23:33.707Z,44
2017-10-14T07:24:34.467Z,44
2017-10-14T07:25:35.110Z,48
2017-10-14T07:26:35.723Z,60
2017-10-14T07:27:36.341Z,76
2017-10-14T07:28:36.953Z,88
2017-10-14T07:29:37.721Z,100
2017-10-14T07:30:38.332Z,104
2017-10-14T07:31:38.952Z,104
2017-10-14T07:32:39.565Z,104
2017-10-14T07:33:40.178Z,108
2017-10-14T07:34:40.944Z,108
2017-10-14T07:35:41.561Z,112
2017-10-14T07:36:42.205Z,112
2017-10-14T07:37:42.819Z,112
2017-10-14T07:38:43.434Z,116
2017-10-14T07:39:44.198Z,116
2017-10-14T07:40:44.841Z,116
2017-10-14T07:41:45.456Z,120
2017-10-14T07:42:46.071Z,120
2017-10-14T07:43:46.685Z,124
2017-10-14T07:44:47.452Z,128
2017-10-14T07:45:48.072Z,128
2017-10-14T07:46:48.683Z,128
2017-10-14T07:47:49.300Z,128
2017-10-14T07:48:49.915Z,132
2017-10-14T07:49:50.679Z,132
2017-10-14T07:50:51.297Z,136
2017-10-14T07:51:51.916Z,136
2017-10-14T07:52:52.528Z,136
2017-10-14T07:53:53.142Z,140
2017-10-14T07:54:53.914Z,140
2017-10-14T07:55:54.523Z,144
2017-10-14T07:56:55.143Z,144
2017-10-14T07:57:55.754Z,148
2017-10-14T07:58:56.369Z,148
2017-10-14T07:59:57.136Z,148
2017-10-14T08:00:57.780Z,148
2017-10-14T08:01:58.396Z,152
2017-10-14T08:02:59.017Z,156
2017-10-14T08:03:59.636Z,156
2017-10-14T08:05:00.398Z,156
2017-10-14T08:06:01.016Z,160
2017-10-14T08:07:01.632Z,160
2017-10-14T08:08:02.249Z,164
2017-10-14T08:09:02.870Z,164
2017-10-14T08:10:03.634Z,168
2017-10-14T08:11:04.283Z,172
2017-10-14T08:12:04.897Z,168
2017-10-14T08:13:05.513Z,172
2017-10-14T08:14:06.132Z,176
2017-10-14T08:15:06.901Z,180
2017-10-14T08:16:07.510Z,180
2017-10-14T08:17:08.125Z,184
2017-10-14T08:18:08.773Z,184
2017-10-14T08:19:09.425Z,188
2017-10-14T08:20:10.189Z,192
2017-10-14T08:21:10.805Z,192
2017-10-14T08:22:11.420Z,192
2017-10-14T08:23:12.039Z,196
2017-10-14T08:24:12.658Z,196
2017-10-14T08:25:13.428Z,200
2017-10-14T08:26:14.041Z,204
2017-10-14T08:27:14.658Z,204
2017-10-14T08:28:15.272Z,208
2017-10-14T08:29:15.888Z,212
2017-10-14T08:30:16.657Z,212
2017-10-14T08:31:17.297Z,216
2017-10-14T08:32:17.913Z,216
2017-10-14T08:33:18.529Z,216
2017-10-14T08:34:19.145Z,224
2017-10-14T08:35:19.915Z,224
2017-10-14T08:36:20.533Z,228
2017-10-14T08:37:21.146Z,228
2017-10-14T08:38:21.765Z,232
2017-10-14T08:39:22.380Z,236
2017-10-14T08:40:23.150Z,236
2017-10-14T08:41:23.766Z,240
2017-10-14T08:42:24.381Z,244
2017-10-14T08:43:25.003Z,244
2017-10-14T08:44:25.646Z,252
2017-10-14T08:45:26.447Z,252
2017-10-14T08:46:27.062Z,260
2017-10-14T08:47:27.686Z,260
2017-10-14T08:48:28.301Z,264
2017-10-14T08:49:28.916Z,268
2017-10-14T08:50:29.712Z,272
2017-10-14T08:51:30.331Z,276
2017-10-14T08:52:30.947Z,280
2017-10-14T08:53:31.564Z,288
2017-10-14T08:54:32.181Z,288
2017-10-14T08:55:32.947Z,296
2017-10-14T08:56:33.592Z,300
2017-10-14T08:57:34.217Z,304
2017-10-14T08:58:34.830Z,312
2017-10-14T08:59:35.450Z,316
2017-10-14T09:00:36.219Z,324
2017-10-14T09:01:36.836Z,332
2017-10-14T09:02:37.484Z,336
2017-10-14T09:03:38.102Z,344
2017-10-14T09:04:38.721Z,352
2017-10-14T09:05:39.487Z,364
2017-10-14T09:06:40.107Z,380
2017-10-14T09:07:40.727Z,392
2017-10-14T09:08:41.341Z,404
2017-10-14T09:09:41.960Z,416
2017-10-14T09:10:42.725Z,432
2017-10-14T09:11:43.350Z,444
2017-10-14T09:12:44.001Z,456
2017-10-14T09:13:44.615Z,468
2017-10-14T09:14:45.232Z,476
2017-10-14T09:15:46.002Z,488
2017-10-14T09:16:46.617Z,504
2017-10-14T09:17:47.236Z,512
2017-10-14T09:18:47.854Z,520
2017-10-14T09:19:48.477Z,532
2017-10-14T09:20:49.240Z,544
2017-10-14T09:21:49.858Z,552
2017-10-14T09:22:50.476Z,560
2017-10-14T09:23:51.122Z,568
2017-10-14T09:24:51.746Z,576
2017-10-14T09:25:52.512Z,584
2017-10-14T09:26:53.137Z,596
2017-10-14T09:27:53.750Z,608
2017-10-14T09:28:54.365Z,616
2017-10-14T09:29:54.988Z,628
2017-10-14T09:30:55.755Z,640
2017-10-14T09:31:56.372Z,644
2017-10-14T09:32:56.991Z,656
2017-10-14T09:33:57.609Z,664
2017-10-14T09:34:58.259Z,676
2017-10-14T09:35:59.026Z,688
2017-10-14T09:36:59.645Z,696
2017-10-14T09:38:00.264Z,704
2017-10-14T09:39:00.882Z,716
2017-10-14T09:40:01.501Z,720
2017-10-14T09:41:02.268Z,732
2017-10-14T09:42:02.889Z,744
2017-10-14T09:43:03.505Z,752
2017-10-14T09:44:04.121Z,764
2017-10-14T09:45:04.770Z,768
2017-10-14T09:46:05.538Z,780
2017-10-14T09:47:06.159Z,784
2017-10-14T09:48:06.783Z,796
2017-10-14T09:49:07.397Z,804
2017-10-14T09:50:08.019Z,816
2017-10-14T09:51:08.787Z,820
2017-10-14T09:52:09.413Z,832
2017-10-14T09:53:10.029Z,836
2017-10-14T09:54:10.642Z,848
2017-10-14T09:55:11.262Z,856
2017-10-14T09:56:12.036Z,864
2017-10-14T09:57:12.657Z,868
2017-10-14T09:58:13.276Z,876
2017-10-14T09:59:13.891Z,880
2017-10-14T10:00:14.515Z,892
2017-10-14T10:01:15.284Z,896
2017-10-14T10:02:15.908Z,904
2017-10-14T10:03:16.525Z,912
2017-10-14T10:04:17.150Z,920
2017-10-14T10:05:17.768Z,924
2017-10-14T10:06:18.536Z,936
2017-10-14T10:07:19.156Z,944
2017-10-14T10:08:19.776Z,948
2017-10-14T10:09:20.426Z,956
2017-10-14T10:10:21.044Z,960
2017-10-14T10:11:21.819Z,968
2017-10-14T10:12:22.437Z,976
2017-10-14T10:13:23.087Z,976
2017-10-14T10:14:23.704Z,984
2017-10-14T10:15:24.327Z,992
2017-10-14T10:16:25.100Z,992
2017-10-14T10:17:25.722Z,1000
2017-10-14T10:18:26.348Z,1004
2017-10-14T10:19:27.005Z,1008
2017-10-14T10:20:27.628Z,1012
2017-10-14T10:21:28.397Z,1020
2017-10-14T10:22:29.025Z,1020
2017-10-14T10:23:29.675Z,1028
2017-10-14T10:24:30.304Z,1032
2017-10-14T10:25:30.931Z,1036
2017-10-14T10:26:31.728Z,1040
2017-10-14T10:27:32.351Z,1044
2017-10-14T10:28:32.970Z,1048
2017-10-14T10:29:33.597Z,1056
2017-10-14T10:30:34.221Z,1056
2017-10-14T10:31:34.990Z,1060
2017-10-14T10:32:35.613Z,1064
2017-10-14T10:33:36.239Z,1064
2017-10-14T10:34:36.858Z,1068
2017-10-14T10:35:37.477Z,1072
2017-10-14T10:36:38.250Z,1080
2017-10-14T10:37:38.901Z,1080
2017-10-14T10:38:39.523Z,1084
2017-10-14T10:39:40.144Z,1084
2017-10-14T10:40:40.767Z,1088
2017-10-14T10:41:41.537Z,1092
2017-10-14T10:42:42.190Z,1092
2017-10-14T10:43:42.818Z,1096
2017-10-14T10:44:43.471Z,1104
2017-10-14T10:45:44.091Z,1104
2017-10-14T10:46:44.865Z,1108
2017-10-14T10:47:45.500Z,1108
2017-10-14T10:48:46.111Z,1112
2017-10-14T10:49:46.733Z,1116
2017-10-14T10:50:47.354Z,1120
2017-10-14T10:51:48.196Z,1120
2017-10-14T10:52:48.800Z,1124
2017-10-14T10:53:49.422Z,1124
2017-10-14T10:54:50.044Z,1128
2017-10-14T10:55:50.666Z,1132
2017-10-14T10:56:51.438Z,1136
2017-10-14T10:57:52.065Z,1136
2017-10-14T10:58:52.690Z,1136
2017-10-14T10:59:53.341Z,1140
2017-10-14T11:00:53.969Z,1144
2017-10-14T11:01:54.738Z,1148
2017-10-14T11:02:55.361Z,1148
2017-10-14T11:03:55.985Z,1152
2017-10-14T11:04:56.607Z,1156
2017-10-14T11:05:57.228Z,1156
2017-10-14T11:06:57.999Z,1160
2017-10-14T11:07:58.622Z,1160
2017-10-14T11:08:59.244Z,1160
2017-10-14T11:09:59.864Z,1164
2017-10-14T11:11:00.489Z,1164
2017-10-14T11:12:01.268Z,1168
2017-10-14T11:13:01.890Z,1164
2017-10-14T11:14:02.510Z,1168
2017-10-14T11:15:03.134Z,1168
2017-10-14T11:16:03.762Z,1168
2017-10-14T11:17:04.527Z,1172
2017-10-14T11:18:05.181Z,1168
2017-10-14T11:19:05.835Z,1172
2017-10-14T11:20:06.460Z,1172
2017-10-14T11:21:07.083Z,1176
2017-10-14T11:22:07.885Z,1172
2017-10-14T11:23:08.521Z,1176
2017-10-14T11:24:09.135Z,1172
2017-10-14T11:25:09.756Z,1180
2017-10-14T11:26:10.378Z,1176
2017-10-14T11:27:11.179Z,1180
2017-10-14T11:28:11.803Z,1184
2017-10-14T11:29:12.425Z,1180
2017-10-14T11:30:13.047Z,1180
2017-10-14T11:31:13.672Z,1184
2017-10-14T11:32:14.446Z,1184
2017-10-14T11:33:15.070Z,1184
2017-10-14T11:34:15.706Z,1184
2017-10-14T11:35:16.320Z,1188
2017-10-14T11:36:16.942Z,1188
2017-10-14T11:37:17.721Z,1184
2017-10-14T11:38:18.338Z,1188
2017-10-14T11:39:18.966Z,1184
2017-10-14T11:40:19.593Z,1188
2017-10-14T11:41:20.217Z,1188
2017-10-14T11:42:21.017Z,1188
2017-10-14T11:43:21.646Z,1192
2017-10-14T11:44:22.265Z,1192
2017-10-14T11:45:22.888Z,1188
2017-10-14T11:46:23.511Z,1192
2017-10-14T11:47:24.289Z,1192
2017-10-14T11:48:24.941Z,1192
2017-10-14T11:49:25.594Z,1192
2017-10-14T11:50:26.216Z,1200
2017-10-14T11:51:26.844Z,1192
2017-10-14T11:52:27.613Z,1196
2017-10-14T11:53:28.267Z,1200
2017-10-14T11:54:28.891Z,1200
2017-10-14T11:55:29.518Z,1200
2017-10-14T11:56:30.141Z,1200
2017-10-14T11:57:30.969Z,1200
2017-10-14T11:58:31.591Z,1204
2017-10-14T11:59:32.221Z,1204
2017-10-14T12:00:32.840Z,1204
2017-10-14T12:01:33.463Z,1208
2017-10-14T12:02:34.235Z,1208
2017-10-14T12:03:34.863Z,1208
2017-10-14T12:04:35.485Z,1212
2017-10-14T12:05:36.124Z,1216
2017-10-14T12:06:36.770Z,1216
2017-10-14T12:07:37.541Z,1220
2017-10-14T12:08:38.173Z,1220
2017-10-14T12:09:38.789Z,1220
2017-10-14T12:10:39.413Z,1224
2017-10-14T12:11:40.041Z,1224
2017-10-14T12:12:40.812Z,1224
2017-10-14T12:13:41.435Z,1228
2017-10-14T12:14:42.059Z,1228
2017-10-14T12:15:42.691Z,1232
2017-10-14T12:16:43.306Z,1232
2017-10-14T12:17:44.081Z,1236
2017-10-14T12:18:44.710Z,1236
2017-10-14T12:19:45.332Z,1240
2017-10-14T12:20:45.960Z,1240
2017-10-14T12:21:46.581Z,1240
2017-10-14T12:22:47.356Z,1240
2017-10-14T12:23:47.979Z,1244
2017-10-14T12:24:48.605Z,1240
2017-10-14T12:25:49.267Z,1252
2017-10-14T12:26:49.887Z,1248
2017-10-14T12:27:50.666Z,1248
2017-10-14T12:28:51.286Z,1252
2017-10-14T12:29:51.910Z,1252
2017-10-14T12:30:52.535Z,1256
2017-10-14T12:31:53.166Z,1248
2017-10-14T12:32:53.936Z,1260
2017-10-14T12:33:54.589Z,1256
2017-10-14T12:34:55.218Z,1260
2017-10-14T12:35:55.838Z,1260
2017-10-14T12:36:56.473Z,1264
2017-10-14T12:37:57.237Z,1264
2017-10-14T12:38:57.861Z,1272
2017-10-14T12:39:58.483Z,1268
2017-10-14T12:40:59.107Z,1268
2017-10-14T12:41:59.761Z,1272
2017-10-14T12:43:00.541Z,1268
2017-10-14T12:44:01.161Z,1280
2017-10-14T12:45:01.786Z,1272
2017-10-14T12:46:02.412Z,1276
2017-10-14T12:47:03.042Z,1280
2017-10-14T12:48:03.812Z,1284
2017-10-14T12:49:04.438Z,1284
2017-10-14T12:50:05.063Z,1284
2017-10-14T12:51:05.688Z,1288
2017-10-14T12:52:06.311Z,1288
2017-10-14T12:53:07.086Z,1288
2017-10-14T12:54:07.738Z,1288
2017-10-14T12:55:08.363Z,1292
2017-10-14T12:56:09.017Z,1292
2017-10-14T12:57:09.646Z,1292
2017-10-14T12:58:10.419Z,1296
2017-10-14T12:59:11.043Z,1296
2017-10-14T13:00:11.696Z,1296
2017-10-14T13:01:12.346Z,1296
2017-10-14T13:02:13.021Z,1300
2017-10-14T13:03:13.835Z,1304
2017-10-14T13:04:14.508Z,1300
2017-10-14T13:05:15.183Z,1304
2017-10-14T13:06:15.924Z,1304
2017-10-14T13:07:16.599Z,1300
2017-10-14T13:08:17.417Z,1308
2017-10-14T13:09:18.076Z,1304
2017-10-14T13:10:18.745Z,1308
2017-10-14T13:11:19.407Z,1304
2017-10-14T13:12:20.084Z,1308
2017-10-14T13:13:20.913Z,1308
2017-10-14T13:14:21.589Z,1312
2017-10-14T13:15:22.251Z,1308
2017-10-14T13:16:22.918Z,1312
2017-10-14T13:17:23.585Z,1312
2017-10-14T13:18:24.407Z,1312
2017-10-14T13:19:25.079Z,1316
2017-10-14T13:20:25.756Z,1312
2017-10-14T13:21:26.427Z,1316
2017-10-14T13:22:27.106Z,1316
2017-10-14T13:23:27.925Z,1312
2017-10-14T13:24:28.601Z,1316
2017-10-14T13:25:29.274Z,1316
2017-10-14T13:26:29.948Z,1316
2017-10-14T13:27:30.611Z,1316
2017-10-14T13:28:31.511Z,1316
2017-10-14T13:29:32.180Z,1316
2017-10-14T13:30:32.833Z,1316
2017-10-14T13:31:33.578Z,1316
2017-10-14T13:32:34.234Z,1316
2017-10-14T13:33:35.045Z,1316
2017-10-14T13:34:35.713Z,1320
2017-10-14T13:35:36.445Z,1312
2017-10-14T13:36:37.113Z,1316
2017-10-14T13:37:37.838Z,1316
2017-10-14T13:38:38.690Z,1316
2017-10-14T13:39:39.366Z,1316
2017-10-14T13:40:39.994Z,1308
2017-10-14T13:41:40.648Z,1312
2017-10-14T13:42:41.280Z,1316
2017-10-14T13:43:42.049Z,1312
2017-10-14T13:44:42.672Z,1316
2017-10-14T13:45:43.332Z,1308
2017-10-14T13:46:44.002Z,1308
2017-10-14T13:47:44.613Z,1312
2017-10-14T13:48:45.396Z,1312
2017-10-14T13:49:46.043Z,1308
2017-10-14T13:50:46.673Z,1312
2017-10-14T13:51:47.298Z,1308
2017-10-14T13:52:47.919Z,1312
2017-10-14T13:53:48.694Z,1304
2017-10-14T13:54:49.319Z,1308
2017-10-14T13:55:49.942Z,1308
2017-10-14T13:56:50.572Z,1308
2017-10-14T13:57:51.203Z,1304
2017-10-14T13:58:52.007Z,1304
2017-10-14T13:59:52.629Z,1304
2017-10-14T14:00:53.286Z,1300
2017-10-14T14:01:53.911Z,1304
2017-10-14T14:02:54.536Z,1300
2017-10-14T14:03:55.310Z,1300
2017-10-14T14:04:55.937Z,1304
2017-10-14T14:05:56.562Z,1296
2017-10-14T14:06:57.189Z,1296
2017-10-14T14:07:57.812Z,1292
2017-10-14T14:08:58.586Z,1296
2017-10-14T14:09:59.217Z,1292
2017-10-14T14:10:59.846Z,1292
2017-10-14T14:12:00.476Z,1292
2017-10-14T14:13:01.126Z,1288
2017-10-14T14:14:01.906Z,1288
2017-10-14T14:15:02.528Z,1288